Time;durP1;ratioP1;P1;durP2;ratioP2;P2;SDS_P1;SDS_P2;PMS_P1;PMS_P2;Temp;Humidity;BMP_temperature;BMP_pressure;BME280_temperature;BME280_humidity;BME280_pressure;Samples;Min_cycle;Max_cycle;Signal;HPM_P1;HPM_P2
2023/05/17 00:02:21;;;;;;;28.77;16.92;;;;;;;9.48;100.00;100452.81;5056621;28;20025;-75
2023/05/17 00:04:47;;;;;;;27.17;15.25;;;;;;;9.48;100.00;100446.31;5057091;28;20454;-77
2023/05/17 00:07:12;;;;;;;31.30;15.43;;;;;;;9.48;100.00;100452.81;5058149;28;20144;-76
2023/05/17 00:09:38;;;;;;;26.02;14.75;;;;;;;9.48;100.00;100460.56;5059239;28;20021;-76
2023/05/17 00:12:03;;;;;;;26.13;15.82;;;;;;;9.40;100.00;100453.63;5059180;28;20466;-74
2023/05/17 00:14:29;;;;;;;28.85;15.88;;;;;;;9.39;100.00;100458.56;5058898;28;20028;-76
2023/05/17 00:16:54;;;;;;;20.45;14.45;;;;;;;9.43;100.00;100464.09;5055528;28;20033;-77
2023/05/17 00:19:19;;;;;;;23.33;14.55;;;;;;;9.46;100.00;100466.75;5056979;28;20374;-75
2023/05/17 00:21:45;;;;;;;22.48;14.68;;;;;;;9.41;100.00;100456.00;5055099;28;20073;-76
2023/05/17 00:24:10;;;;;;;26.58;15.32;;;;;;;9.45;100.00;100455.81;5055157;28;20462;-76
2023/05/17 00:26:36;;;;;;;23.77;13.73;;;;;;;9.45;100.00;100448.06;5056102;28;20091;-77
2023/05/17 00:29:02;;;;;;;22.90;13.18;;;;;;;9.43;100.00;100449.81;5056232;28;20351;-77
2023/05/17 00:31:27;;;;;;;27.63;14.00;;;;;;;9.40;100.00;100454.41;5055968;28;20025;-77
2023/05/17 00:33:53;;;;;;;25.15;14.90;;;;;;;9.32;100.00;100447.47;5054961;28;20106;-76
2023/05/17 00:36:18;;;;;;;21.23;14.40;;;;;;;9.39;100.00;100460.63;5055821;28;20527;-76
2023/05/17 00:38:44;;;;;;;18.73;12.95;;;;;;;9.36;100.00;100453.81;5055863;28;20037;-76
2023/05/17 00:41:10;;;;;;;24.38;15.35;;;;;;;9.26;100.00;100450.19;5053937;28;20413;-75
2023/05/17 00:43:35;;;;;;;24.30;14.68;;;;;;;9.33;100.00;100463.31;5053632;28;20477;-78
2023/05/17 00:46:01;;;;;;;26.00;14.55;;;;;;;9.31;100.00;100463.00;5053708;28;20017;-76
2023/05/17 00:48:27;;;;;;;25.50;13.68;;;;;;;9.24;100.00;100449.91;5053888;28;20506;-77
2023/05/17 00:50:54;;;;;;;24.67;15.18;;;;;;;9.26;100.00;100449.41;5052427;28;20061;-76
2023/05/17 00:53:20;;;;;;;24.15;14.85;;;;;;;9.29;100.00;100457.00;5035939;28;20094;-75
2023/05/17 00:55:45;;;;;;;28.50;14.75;;;;;;;9.30;100.00;100455.72;5052498;28;20049;-76
2023/05/17 00:58:11;;;;;;;24.38;13.63;;;;;;;9.30;100.00;100454.97;5055417;28;20078;-77
2023/05/17 01:00:37;;;;;;;26.50;14.75;;;;;;;9.30;100.00;100457.81;5037574;28;20067;-75
2023/05/17 01:03:02;;;;;;;26.20;15.95;;;;;;;9.24;100.00;100444.19;5037485;28;20063;-76
2023/05/17 01:05:28;;;;;;;23.77;14.65;;;;;;;9.31;100.00;100450.81;5037425;28;20146;-77
2023/05/17 01:07:54;;;;;;;27.45;16.13;;;;;;;9.35;100.00;100448.59;5054462;28;20025;-76
2023/05/17 01:10:20;;;;;;;26.73;15.95;;;;;;;9.36;100.00;100459.50;5055351;28;20025;-75
2023/05/17 01:13:00;;;;;;;30.77;18.25;;;;;;;9.34;100.00;100453.50;5055331;28;20096;-76
2023/05/17 01:15:36;;;;;;;32.90;16.58;;;;;;;9.26;100.00;100450.19;5053741;28;20477;-77
2023/05/17 01:18:11;;;;;;;25.70;16.27;;;;;;;9.29;100.00;100459.88;5050587;28;20029;-76
2023/05/17 01:20:40;;;;;;;24.13;15.35;;;;;;;9.26;100.00;100455.91;5035015;28;20124;-76
2023/05/17 01:23:22;;;;;;;28.05;16.60;;;;;;;9.24;100.00;100457.66;5034977;28;20115;-76
2023/05/17 01:26:40;;;;;;;25.15;15.27;;;;;;;9.20;100.00;100454.97;5052738;28;20075;-76
2023/05/17 01:29:07;;;;;;;31.48;15.93;;;;;;;9.15;100.00;100461.31;5050203;28;20116;-77
2023/05/17 01:31:35;;;;;;;26.35;15.50;;;;;;;9.11;100.00;100465.59;5033965;28;20035;-76
2023/05/17 01:34:00;;;;;;;24.13;15.00;;;;;;;9.09;100.00;100451.06;5050893;28;20048;-76
2023/05/17 01:36:26;;;;;;;24.60;15.55;;;;;;;9.09;100.00;100460.41;5051322;28;20029;-76
2023/05/17 01:38:51;;;;;;;28.15;14.68;;;;;;;9.06;100.00;100460.53;5053024;28;20025;-76
2023/05/17 01:41:27;;;;;;;22.35;13.90;;;;;;;9.01;100.00;100455.50;5051734;28;20343;-76
2023/05/17 01:44:25;;;;;;;21.58;13.43;;;;;;;9.03;100.00;100478.63;5052802;28;20025;-78
2023/05/17 01:46:54;;;;;;;21.63;13.13;;;;;;;9.03;100.00;100473.72;5045125;28;20041;-76
2023/05/17 01:49:36;;;;;;;22.33;12.82;;;;;;;9.03;100.00;100465.16;5051963;28;20044;-76
2023/05/17 01:52:09;;;;;;;18.85;12.00;;;;;;;9.02;100.00;100462.78;5052268;28;20025;-76
2023/05/17 01:54:59;;;;;;;24.73;12.63;;;;;;;9.05;100.00;100464.69;5053591;28;20056;-76
2023/05/17 01:57:28;;;;;;;20.85;11.50;;;;;;;9.01;100.00;100469.75;5053010;28;20074;-77
2023/05/17 01:59:54;;;;;;;21.88;11.50;;;;;;;8.98;100.00;100465.81;5053524;28;20344;-76
2023/05/17 02:02:21;;;;;;;20.00;12.65;;;;;;;8.97;100.00;100464.22;5053145;28;20024;-77
2023/05/17 02:04:47;;;;;;;18.98;12.88;;;;;;;9.02;100.00;100477.03;5053275;28;20029;-76
2023/05/17 02:07:12;;;;;;;21.80;12.60;;;;;;;9.01;100.00;100481.94;5054606;28;20100;-77
2023/05/17 02:09:38;;;;;;;18.58;12.65;;;;;;;9.05;100.00;100484.63;5052994;28;20462;-77
2023/05/17 02:12:03;;;;;;;19.25;11.70;;;;;;;9.06;100.00;100486.19;5054611;28;20052;-77
2023/05/17 02:14:29;;;;;;;22.73;12.45;;;;;;;9.07;100.00;100488.56;5054262;28;20082;-76
2023/05/17 02:16:54;;;;;;;21.58;13.48;;;;;;;9.06;100.00;100487.00;5053792;28;20075;-76
2023/05/17 02:19:20;;;;;;;19.17;11.52;;;;;;;9.08;100.00;100477.97;5052812;28;20024;-76
2023/05/17 02:21:45;;;;;;;20.38;11.75;;;;;;;9.07;100.00;100479.22;5054352;28;20526;-77
2023/05/17 02:24:10;;;;;;;20.00;12.88;;;;;;;9.04;100.00;100475.28;5052525;28;20021;-76
2023/05/17 02:26:36;;;;;;;21.95;10.65;;;;;;;9.02;100.00;100479.88;5052531;28;20024;-76
2023/05/17 02:29:01;;;;;;;19.20;10.82;;;;;;;8.98;100.00;100473.56;5052329;28;20021;-75
2023/05/17 02:31:27;;;;;;;17.23;9.70;;;;;;;8.98;100.00;100473.56;5054031;28;20072;-76
2023/05/17 02:33:53;;;;;;;14.82;10.27;;;;;;;8.93;100.00;100472.13;5053514;28;20429;-76
2023/05/17 02:36:18;;;;;;;16.30;10.05;;;;;;;8.79;100.00;100459.34;5053498;28;20048;-75
2023/05/17 02:38:44;;;;;;;14.38;9.63;;;;;;;8.93;100.00;100477.03;5053556;28;20025;-75
2023/05/17 02:41:09;;;;;;;14.60;8.90;;;;;;;8.91;100.00;100485.28;5053544;28;20108;-76
2023/05/17 02:43:35;;;;;;;15.68;10.15;;;;;;;8.83;100.00;100477.06;5053454;28;20021;-76
2023/05/17 02:46:00;;;;;;;13.40;9.60;;;;;;;8.85;100.00;100481.50;5053622;28;20052;-78
2023/05/17 02:48:26;;;;;;;13.95;7.95;;;;;;;8.85;100.00;100475.81;5053475;28;20021;-76
2023/05/17 02:50:51;;;;;;;13.18;8.82;;;;;;;8.86;100.00;100481.00;5053699;28;20029;-77
2023/05/17 02:53:16;;;;;;;11.65;7.90;;;;;;;8.86;100.00;100494.47;5035589;28;20466;-77
2023/05/17 02:55:42;;;;;;;15.02;8.07;;;;;;;8.83;100.00;100496.22;5053013;28;20045;-76
2023/05/17 02:58:07;;;;;;;16.40;7.85;;;;;;;8.79;100.00;100502.09;5053506;28;20044;-76
2023/05/17 03:00:32;;;;;;;13.48;7.80;;;;;;;8.66;100.00;100475.00;5053234;28;20029;-74
2023/05/17 03:02:58;;;;;;;12.35;7.90;;;;;;;8.79;100.00;100507.78;5052299;28;20017;-74
2023/05/17 03:05:23;;;;;;;12.98;8.35;;;;;;;8.72;100.00;100496.69;5053290;28;20461;-75
2023/05/17 03:07:49;;;;;;;13.55;7.88;;;;;;;8.74;100.00;100508.41;5035125;28;20028;-76
2023/05/17 03:10:15;;;;;;;10.20;7.38;;;;;;;8.76;100.00;100507.91;5053107;28;20485;-77
2023/05/17 03:12:40;;;;;;;13.27;7.50;;;;;;;8.67;100.00;100502.22;5051707;28;20029;-76
2023/05/17 03:15:06;;;;;;;17.55;6.82;;;;;;;8.73;100.00;100520.28;5053323;28;20021;-76
2023/05/17 03:17:31;;;;;;;11.00;6.50;;;;;;;8.71;100.00;100531.34;5053171;28;20021;-75
2023/05/17 03:19:57;;;;;;;15.95;6.68;;;;;;;8.68;100.00;100533.09;5052332;28;20025;-75
2023/05/17 03:22:22;;;;;;;14.02;6.20;;;;;;;8.65;100.00;100531.22;5052987;28;20044;-75
2023/05/17 03:24:47;;;;;;;8.90;5.22;;;;;;;8.65;100.00;100534.06;5052776;28;20051;-75
2023/05/17 03:27:13;;;;;;;9.30;5.72;;;;;;;8.64;100.00;100537.38;5051848;28;20105;-74
2023/05/17 03:29:38;;;;;;;11.23;5.47;;;;;;;8.65;100.00;100533.28;5052845;28;20378;-74
2023/05/17 03:32:04;;;;;;;8.57;5.47;;;;;;;8.58;100.00;100533.56;5051595;28;20470;-75
2023/05/17 03:34:29;;;;;;;11.82;6.03;;;;;;;8.57;100.00;100543.38;5051914;28;20176;-77
2023/05/17 03:36:55;;;;;;;10.02;6.32;;;;;;;8.57;100.00;100535.63;5051680;28;20437;-75
2023/05/17 03:39:20;;;;;;;11.95;6.00;;;;;;;8.55;100.00;100546.72;5052832;28;20463;-75
2023/05/17 03:41:46;;;;;;;9.85;5.03;;;;;;;8.50;100.00;100533.09;5052870;28;20025;-76
2023/05/17 03:44:11;;;;;;;6.07;4.68;;;;;;;8.55;100.00;100540.22;5052807;28;20020;-75
2023/05/17 03:46:36;;;;;;;11.45;5.75;;;;;;;8.53;100.00;100552.06;5053009;28;20032;-75
2023/05/17 03:49:02;;;;;;;15.98;4.88;;;;;;;8.52;100.00;100550.50;5051545;28;20055;-75
2023/05/17 03:51:31;;;;;;;7.90;5.25;;;;;;;8.59;100.00;100560.78;5052665;28;20021;-76
2023/05/17 03:54:10;;;;;;;9.65;5.30;;;;;;;8.60;100.00;100557.47;5052855;28;20028;-74
2023/05/17 03:56:36;;;;;;;8.18;5.07;;;;;;;8.60;100.00;100548.94;5051231;28;20120;-76
2023/05/17 03:59:02;;;;;;;7.30;4.05;;;;;;;8.65;100.00;100561.75;5051294;28;20452;-76
2023/05/17 04:01:27;;;;;;;10.70;5.00;;;;;;;8.66;100.00;100554.78;5052716;28;20083;-76
2023/05/17 04:03:55;;;;;;;11.15;4.43;;;;;;;8.71;100.00;100566.31;5052730;28;20393;-75
2023/05/17 04:06:21;;;;;;;10.48;4.15;;;;;;;8.69;100.00;100563.19;5052662;28;20017;-77
2023/05/17 04:08:47;;;;;;;7.75;3.55;;;;;;;8.69;100.00;100563.19;5051470;28;20067;-76
2023/05/17 04:11:15;;;;;;;212.07;187.68;;;;;;;8.76;100.00;100564.91;5054673;28;20082;-76
2023/05/17 04:13:41;;;;;;;170.50;131.88;;;;;;;8.73;100.00;100575.19;5055303;28;20025;-77
2023/05/17 04:16:08;;;;;;;8.85;4.95;;;;;;;8.74;100.00;100567.44;5037752;28;20029;-74
2023/05/17 04:18:35;;;;;;;8.43;3.45;;;;;;;8.78;100.00;100573.78;5053939;28;20036;-76
2023/05/17 04:21:03;;;;;;;6.10;3.67;;;;;;;8.72;100.00;100569.97;5053085;28;20079;-76
2023/05/17 04:23:31;;;;;;;8.73;4.10;;;;;;;8.73;100.00;100572.34;5052609;28;20377;-75
2023/05/17 04:25:59;;;;;;;5.70;3.75;;;;;;;8.80;100.00;100580.56;5034696;28;20029;-77
2023/05/17 04:28:26;;;;;;;6.30;3.45;;;;;;;8.68;100.00;100555.09;5052830;28;20037;-75
2023/05/17 04:30:53;;;;;;;9.77;3.75;;;;;;;8.81;100.00;100581.38;5052769;28;20415;-76
2023/05/17 04:33:23;;;;;;;7.10;3.53;;;;;;;8.90;100.00;100586.31;5056182;28;20020;-75
2023/05/17 04:35:51;;;;;;;7.32;4.00;;;;;;;8.95;100.00;100599.91;5038022;28;20082;-76
2023/05/17 04:38:17;;;;;;;4.40;3.47;;;;;;;8.94;100.00;100590.56;5038573;28;20039;-74
2023/05/17 04:40:42;;;;;;;4.85;3.22;;;;;;;8.97;100.00;100600.22;5050733;28;20419;-74
2023/05/17 04:43:09;;;;;;;8.63;3.10;;;;;;;8.98;100.00;100608.31;5035578;28;20100;-75
2023/05/17 04:45:36;;;;;;;9.65;2.95;;;;;;;8.96;100.00;100605.13;5036928;28;20061;-75
2023/05/17 04:48:03;;;;;;;6.38;2.85;;;;;;;9.02;100.00;100611.78;5035713;28;20022;-74
2023/05/17 04:50:37;;;;;;;6.88;2.80;;;;;;;9.04;100.00;100609.25;5035844;28;20036;-76
2023/05/17 04:53:03;;;;;;;12.10;3.67;;;;;;;9.05;100.00;100607.97;5036263;28;20017;-75
2023/05/17 04:55:30;;;;;;;7.60;2.67;;;;;;;9.11;100.00;100608.94;5035652;28;20522;-76
2023/05/17 04:57:57;;;;;;;16.70;4.05;;;;;;;9.19;100.00;100601.66;5035456;28;20129;-77
2023/05/17 05:00:24;;;;;;;13.30;3.08;;;;;;;9.30;100.00;100594.69;5017761;28;20087;-75
2023/05/17 05:02:49;;;;;;;9.07;3.20;;;;;;;9.42;100.00;100599.41;5034518;28;20022;-78
2023/05/17 05:05:16;;;;;;;4.80;2.83;;;;;;;9.55;100.00;100592.25;5034164;28;20536;-76
2023/05/17 05:07:42;;;;;;;5.63;3.25;;;;;;;9.73;100.00;100599.22;5035335;28;20023;-76
2023/05/17 05:10:10;;;;;;;6.97;2.60;;;;;;;9.91;100.00;100596.28;5034189;28;20036;-75
2023/05/17 05:12:44;;;;;;;7.40;3.10;;;;;;;10.05;100.00;100602.09;5035547;28;20033;-77
2023/05/17 05:15:11;;;;;;;8.20;2.92;;;;;;;10.20;100.00;100604.25;5035540;28;20048;-76
2023/05/17 05:17:36;;;;;;;9.65;2.67;;;;;;;10.45;100.00;100604.59;5017272;28;20379;-76
2023/05/17 05:20:02;;;;;;;6.55;3.03;;;;;;;10.70;100.00;100605.41;5017333;28;20031;-74
2023/05/17 05:22:29;;;;;;;6.07;2.75;;;;;;;10.97;100.00;100605.97;5034904;28;20032;-75
2023/05/17 05:25:04;;;;;;;8.13;3.63;;;;;;;11.26;100.00;100611.03;5035066;28;20057;-76
2023/05/17 05:27:35;;;;;;;7.40;3.22;;;;;;;11.51;100.00;100606.84;5033862;28;20014;-78
2023/05/17 05:30:01;;;;;;;7.53;2.60;;;;;;;11.87;100.00;100619.94;5034186;28;20033;-76
2023/05/17 05:32:28;;;;;;;16.40;7.75;;;;;;;12.15;100.00;100621.22;5032693;28;20104;-78
2023/05/17 05:34:54;;;;;;;9.18;2.90;;;;;;;12.42;100.00;100622.97;5033920;28;20110;-79
2023/05/17 05:37:24;;;;;;;6.40;2.63;;;;;;;12.62;100.00;100622.22;5033636;28;20076;-79
2023/05/17 05:39:49;;;;;;;4.03;2.33;;;;;;;12.73;100.00;100627.31;5033375;28;20474;-79
2023/05/17 05:42:15;;;;;;;3.10;2.13;;;;;;;12.83;100.00;100637.38;5030981;28;20049;-78
2023/05/17 05:44:41;;;;;;;6.22;2.20;;;;;;;12.92;100.00;100635.16;5032402;28;20264;-77
2023/05/17 05:47:06;;;;;;;5.22;1.95;;;;;;;12.94;100.00;100634.66;5030889;28;20434;-78
2023/05/17 05:49:31;;;;;;;6.72;2.80;;;;;;;13.03;100.00;100643.13;5032716;28;20034;-78
2023/05/17 05:51:57;;;;;;;5.78;1.98;;;;;;;13.05;100.00;100649.91;5032754;28;20115;-78
2023/05/17 05:54:22;;;;;;;5.20;2.30;;;;;;;13.04;100.00;100656.19;5031963;28;20122;-78
2023/05/17 05:56:50;;;;;;;7.47;1.83;;;;;;;13.07;100.00;100650.22;5030751;28;20029;-80
2023/05/17 05:59:15;;;;;;;8.40;2.28;;;;;;;13.19;100.00;100656.91;5030964;28;20121;-77
2023/05/17 06:01:40;;;;;;;5.35;2.10;;;;;;;13.34;100.00;100651.06;5032352;28;20113;-77
2023/05/17 06:04:06;;;;;;;10.20;2.08;;;;;;;13.46;100.00;100658.50;5033335;28;20501;-77
2023/05/17 06:06:31;;;;;;;5.10;2.03;;;;;;;13.41;100.00;100650.63;5034319;28;20053;-78
2023/05/17 06:08:56;;;;;;;10.35;2.53;;;;;;;13.46;100.00;100667.13;5034435;28;20055;-78
2023/05/17 06:11:32;;;;;;;9.68;2.30;;;;;;;13.52;100.00;100659.41;5033914;28;20025;-79
2023/05/17 06:13:57;;;;;;;8.95;2.40;;;;;;;13.59;100.00;100672.53;5034309;28;20443;-76
2023/05/17 06:16:23;;;;;;;6.70;1.90;;;;;;;13.54;100.00;100669.06;5037869;28;20057;-83
2023/05/17 06:18:48;;;;;;;10.70;2.17;;;;;;;13.54;100.00;100677.69;5054653;28;20100;-81
2023/05/17 06:21:15;;;;;;;9.73;2.85;;;;;;;13.50;100.00;100674.22;5056831;28;20064;-87
2023/05/17 06:23:40;;;;;;;8.00;2.03;;;;;;;13.29;100.00;100664.06;5054764;28;20025;-85
2023/05/17 06:26:09;;;;;;;11.05;1.95;;;;;;;13.35;100.00;100658.38;5054955;28;20462;-85
2023/05/17 06:28:35;;;;;;;10.45;2.95;;;;;;;13.43;100.00;100673.88;5054149;28;20055;-87
2023/05/17 06:31:00;;;;;;;4.75;2.05;;;;;;;13.43;100.00;100677.53;5044983;28;20060;-86
2023/05/17 06:33:25;;;;;;;8.02;2.00;;;;;;;13.49;100.00;100674.75;5068449;28;20080;-85
2023/05/17 06:35:51;;;;;;;6.80;2.45;;;;;;;13.58;100.00;100676.69;5073958;28;20033;-86
2023/05/17 06:38:17;;;;;;;6.78;2.10;;;;;;;13.78;100.00;100685.28;5054089;28;20059;-89
2023/05/17 06:40:43;;;;;;;9.40;2.65;;;;;;;14.01;100.00;100689.16;5063941;28;20379;-89
2023/05/17 06:43:09;;;;;;;10.88;2.20;;;;;;;14.03;100.00;100706.69;5063839;28;20033;-87
2023/05/17 06:45:34;;;;;;;10.15;3.17;;;;;;;13.94;99.74;100716.22;5039981;28;20025;-84
2023/05/17 06:48:00;;;;;;;8.15;2.80;;;;;;;13.87;100.00;100708.88;5055393;28;20385;-85
2023/05/17 06:50:27;;;;;;;7.68;2.55;;;;;;;13.84;100.00;100711.94;5054866;28;20543;-85
2023/05/17 06:52:53;;;;;;;6.53;1.95;;;;;;;13.83;100.00;100719.00;5053482;28;20025;-79
2023/05/17 06:55:18;;;;;;;7.60;2.53;;;;;;;13.73;99.74;100714.72;5018415;28;20053;-79
2023/05/17 06:57:44;;;;;;;8.15;2.40;;;;;;;13.65;99.94;100733.66;5053356;28;20490;-80
2023/05/17 07:00:10;;;;;;;7.50;2.70;;;;;;;13.45;99.14;100737.31;5053449;28;20201;-81
2023/05/17 07:02:38;;;;;;;8.60;1.98;;;;;;;13.33;100.00;100742.13;5053971;28;20060;-80
2023/05/17 07:05:05;;;;;;;8.55;3.22;;;;;;;13.21;100.00;100731.78;5054257;28;20040;-81
2023/05/17 07:07:32;;;;;;;8.27;2.30;;;;;;;13.11;100.00;100727.47;5052911;28;20044;-78
2023/05/17 07:09:59;;;;;;;9.45;3.00;;;;;;;13.02;100.00;100728.38;5053183;28;20024;-80
2023/05/17 07:12:25;;;;;;;6.38;2.50;;;;;;;13.05;100.00;100726.59;5054399;28;20025;-79
2023/05/17 07:14:52;;;;;;;9.13;2.92;;;;;;;13.01;100.00;100721.06;5053839;28;20032;-74
2023/05/17 07:17:17;;;;;;;11.00;3.28;;;;;;;12.90;100.00;100728.75;5051637;28;20029;-74
2023/05/17 07:19:43;;;;;;;6.82;2.45;;;;;;;12.79;100.00;100731.44;5051811;28;20037;-76
2023/05/17 07:22:10;;;;;;;8.40;2.63;;;;;;;12.65;100.00;100735.91;5052772;28;20047;-77
2023/05/17 07:24:35;;;;;;;11.90;3.05;;;;;;;12.48;100.00;100729.91;5052399;28;20093;-73
2023/05/17 07:27:01;;;;;;;12.68;2.78;;;;;;;12.39;100.00;100729.22;5034888;28;20445;-75
2023/05/17 07:29:26;;;;;;;6.55;2.80;;;;;;;12.34;100.00;100727.81;5052437;28;20048;-78
2023/05/17 07:31:52;;;;;;;11.10;2.75;;;;;;;12.32;100.00;100735.31;5052994;28;20496;-75
2023/05/17 07:34:17;;;;;;;8.73;2.50;;;;;;;12.34;100.00;100730.69;5052809;28;20100;-76
2023/05/17 07:36:43;;;;;;;6.28;2.95;;;;;;;12.41;100.00;100738.88;5052770;28;20072;-75
2023/05/17 07:39:08;;;;;;;11.27;2.80;;;;;;;12.42;100.00;100745.41;5052393;28;20037;-77
2023/05/17 07:41:35;;;;;;;11.52;3.05;;;;;;;12.44;100.00;100737.91;5051986;28;20459;-75
2023/05/17 07:44:02;;;;;;;15.15;3.65;;;;;;;12.55;100.00;100734.44;5052889;28;20100;-76
2023/05/17 07:46:27;;;;;;;8.13;2.85;;;;;;;12.56;100.00;100728.19;5052849;28;20021;-76
2023/05/17 07:48:52;;;;;;;11.18;3.53;;;;;;;12.79;100.00;100751.50;5051257;28;20036;-77
2023/05/17 07:51:19;;;;;;;10.38;3.58;;;;;;;12.85;100.00;100753.16;5051360;28;20455;-76
2023/05/17 07:53:45;;;;;;;7.50;2.80;;;;;;;12.92;100.00;100760.56;5052583;28;20075;-78
2023/05/17 07:56:10;;;;;;;9.95;2.72;;;;;;;12.89;100.00;100759.50;5050174;28;20045;-75
2023/05/17 07:58:35;;;;;;;8.90;2.80;;;;;;;13.01;100.00;100764.09;5051002;28;20032;-76
2023/05/17 08:01:01;;;;;;;8.63;3.08;;;;;;;13.04;100.00;100760.25;5050953;28;20103;-77
2023/05/17 08:03:27;;;;;;;8.70;3.15;;;;;;;13.07;100.00;100762.13;5050466;28;20033;-78
2023/05/17 08:05:52;;;;;;;13.35;3.30;;;;;;;13.07;100.00;100750.63;5052557;28;20028;-77
2023/05/17 08:08:19;;;;;;;10.05;2.97;;;;;;;13.09;100.00;100742.34;5054167;28;20029;-76
2023/05/17 08:10:45;;;;;;;15.73;3.47;;;;;;;13.14;100.00;100743.69;5054711;28;20119;-76
2023/05/17 08:13:10;;;;;;;9.13;2.72;;;;;;;13.20;100.00;100747.41;5056546;28;20162;-77
2023/05/17 08:15:36;;;;;;;10.10;3.35;;;;;;;13.24;100.00;100752.97;5056328;28;20025;-77
2023/05/17 08:18:01;;;;;;;9.80;3.65;;;;;;;13.28;100.00;100747.78;5056245;28;20152;-75
2023/05/17 08:20:26;;;;;;;10.20;3.08;;;;;;;13.26;100.00;100744.63;5054517;28;20481;-76
2023/05/17 08:22:52;;;;;;;8.80;2.88;;;;;;;13.22;100.00;100741.97;5055921;28;20090;-79
2023/05/17 08:25:18;;;;;;;10.40;3.63;;;;;;;13.23;100.00;100742.75;5055985;28;20033;-76
2023/05/17 08:27:43;;;;;;;9.48;3.53;;;;;;;13.19;100.00;100734.38;5054509;28;20032;-76
2023/05/17 08:30:10;;;;;;;11.75;3.75;;;;;;;13.23;100.00;100737.81;5054572;28;20029;-75
2023/05/17 08:32:36;;;;;;;9.73;3.08;;;;;;;13.25;100.00;100743.84;5056083;28;20415;-76
2023/05/17 08:35:02;;;;;;;12.02;3.78;;;;;;;13.20;100.00;100756.03;5055882;28;20459;-76
2023/05/17 08:37:29;;;;;;;12.13;3.70;;;;;;;13.19;100.00;100742.19;5055575;28;20029;-75
2023/05/17 08:39:56;;;;;;;15.27;3.80;;;;;;;13.19;100.00;100747.94;5056339;28;20036;-77
2023/05/17 08:42:26;;;;;;;9.63;3.78;;;;;;;13.23;100.00;100748.50;5056444;28;20064;-75
2023/05/17 08:44:55;;;;;;;11.98;3.70;;;;;;;13.29;100.00;100753.03;5055761;28;20021;-74
2023/05/17 08:47:32;;;;;;;11.50;3.85;;;;;;;13.33;100.00;100752.81;5055766;28;20021;-75
2023/05/17 08:50:04;;;;;;;13.27;3.70;;;;;;;13.41;100.00;100746.16;5055312;28;20075;-75
2023/05/17 08:52:33;;;;;;;17.48;4.03;;;;;;;13.54;100.00;100752.34;5055673;28;20485;-76
2023/05/17 08:55:02;;;;;;;12.90;4.35;;;;;;;13.57;100.00;100749.75;5036953;28;20502;-76
2023/05/17 08:57:30;;;;;;;15.23;4.35;;;;;;;13.71;100.00;100754.63;5055156;28;20029;-75
2023/05/17 09:00:05;;;;;;;13.45;3.95;;;;;;;13.87;100.00;100756.91;5054035;28;20037;-75
2023/05/17 09:02:35;;;;;;;10.05;4.03;;;;;;;14.05;100.00;100761.53;5054021;28;20385;-78
2023/05/17 09:05:01;;;;;;;9.18;4.30;;;;;;;14.21;100.00;100763.81;5051112;28;20060;-78
2023/05/17 09:07:27;;;;;;;12.73;4.25;;;;;;;14.05;100.00;100718.44;5053996;28;20021;-79
2023/05/17 09:09:53;;;;;;;18.15;4.05;;;;;;;14.37;99.79;100757.44;5055249;28;20497;-75
2023/05/17 09:12:20;;;;;;;12.15;3.85;;;;;;;14.45;100.00;100755.69;5053792;28;20025;-74
2023/05/17 09:14:46;;;;;;;9.30;3.47;;;;;;;14.59;100.00;100763.41;5053693;28;20128;-75
2023/05/17 09:17:26;;;;;;;12.55;3.33;;;;;;;14.74;97.24;100766.16;5053239;28;20537;-76
2023/05/17 09:19:59;;;;;;;18.75;4.38;;;;;;;14.73;97.08;100773.19;5054948;28;20374;-75
2023/05/17 09:22:41;;;;;;;18.75;5.22;;;;;;;14.65;94.73;100772.88;5055589;28;20033;-75
2023/05/17 09:25:08;;;;;;;11.98;4.22;;;;;;;14.70;95.53;100771.34;5054728;28;20029;-75
2023/05/17 09:27:34;;;;;;;12.05;3.70;;;;;;;14.82;94.33;100773.03;5054847;28;20104;-74
2023/05/17 09:30:00;;;;;;;9.65;3.83;;;;;;;14.92;93.64;100767.88;5053740;28;20033;-77
2023/05/17 09:32:28;;;;;;;11.45;3.47;;;;;;;15.08;94.34;100765.09;5055028;28;20031;-76
2023/05/17 09:34:58;;;;;;;12.05;4.43;;;;;;;15.28;92.67;100772.81;5054831;28;20534;-75
2023/05/17 09:37:25;;;;;;;12.10;4.07;;;;;;;15.39;87.84;100780.72;5053255;28;20035;-76
2023/05/17 09:39:53;;;;;;;8.95;3.35;;;;;;;15.31;84.70;100785.41;5053529;28;20025;-75
2023/05/17 09:42:25;;;;;;;11.63;3.65;;;;;;;15.14;85.79;100776.66;5053095;28;20029;-76
2023/05/17 09:44:58;;;;;;;11.18;3.65;;;;;;;15.10;86.10;100778.97;5054404;28;20470;-74
2023/05/17 09:47:24;;;;;;;9.25;4.15;;;;;;;15.11;88.14;100769.06;5054781;28;20029;-76
2023/05/17 09:50:01;;;;;;;7.00;3.15;;;;;;;15.20;87.88;100772.50;5053024;28;20029;-76
2023/05/17 09:52:30;;;;;;;13.45;3.97;;;;;;;15.20;85.61;100780.34;5052473;28;20081;-76
2023/05/17 09:54:59;;;;;;;9.38;3.70;;;;;;;15.17;85.23;100785.03;5053331;28;20152;-74
2023/05/17 09:57:35;;;;;;;7.53;3.25;;;;;;;15.13;85.01;100784.50;5053434;28;20033;-75
2023/05/17 10:00:02;;;;;;;12.65;4.30;;;;;;;15.11;84.26;100787.13;5053401;28;20104;-75
2023/05/17 10:02:31;;;;;;;9.57;3.35;;;;;;;15.08;83.98;100790.22;5052584;28;20081;-74
2023/05/17 10:04:57;;;;;;;8.93;3.65;;;;;;;15.03;82.59;100788.88;5052049;28;20474;-75
2023/05/17 10:07:24;;;;;;;11.57;4.22;;;;;;;14.97;81.90;100793.03;5050358;28;20055;-74
2023/05/17 10:09:51;;;;;;;9.65;3.60;;;;;;;14.93;82.95;100796.13;5051930;28;20052;-77
2023/05/17 10:12:18;;;;;;;10.80;3.35;;;;;;;14.91;83.18;100784.34;5050960;28;20032;-76
2023/05/17 10:14:44;;;;;;;9.48;3.75;;;;;;;14.95;84.23;100789.88;5050670;28;20051;-75
2023/05/17 10:17:11;;;;;;;12.70;4.00;;;;;;;14.93;83.02;100795.31;5051595;28;20514;-77
2023/05/17 10:19:37;;;;;;;13.40;3.75;;;;;;;14.78;84.00;100793.38;5050747;28;20108;-72
2023/05/17 10:22:02;;;;;;;14.35;3.90;;;;;;;14.76;84.67;100792.34;5053642;28;20080;-75
2023/05/17 10:24:29;;;;;;;7.53;3.38;;;;;;;14.81;85.44;100800.22;5054043;28;20017;-75
2023/05/17 10:26:55;;;;;;;11.48;3.60;;;;;;;14.84;86.45;100791.34;5053683;28;20108;-73
2023/05/17 10:29:22;;;;;;;10.80;3.17;;;;;;;14.88;85.30;100785.34;5052789;28;20100;-75
2023/05/17 10:31:49;;;;;;;9.52;3.55;;;;;;;14.86;84.35;100798.69;5052690;28;20024;-74
2023/05/17 10:34:15;;;;;;;12.88;3.33;;;;;;;14.81;84.76;100803.09;5053741;28;20105;-76
2023/05/17 10:36:42;;;;;;;6.82;2.55;;;;;;;14.65;85.64;100795.09;5053918;28;20484;-75
2023/05/17 10:39:07;;;;;;;11.35;3.08;;;;;;;14.66;86.92;100806.13;5053663;28;20108;-75
2023/05/17 10:41:34;;;;;;;8.43;3.72;;;;;;;14.61;87.76;100798.22;5052314;28;20119;-75
2023/05/17 10:44:04;;;;;;;8.00;2.90;;;;;;;14.61;88.28;100803.19;5053464;28;20033;-76
2023/05/17 10:46:30;;;;;;;11.55;3.63;;;;;;;14.59;89.98;100794.25;5052121;28;20112;-76
2023/05/17 10:48:57;;;;;;;8.85;3.38;;;;;;;14.59;90.80;100792.19;5052256;28;20525;-75
2023/05/17 10:51:25;;;;;;;9.27;3.67;;;;;;;14.65;91.58;100783.59;5052006;28;20148;-76
2023/05/17 10:54:04;;;;;;;10.30;3.92;;;;;;;14.74;90.72;100792.03;5053669;28;20075;-75
2023/05/17 10:56:31;;;;;;;6.73;2.90;;;;;;;14.79;88.98;100794.19;5053067;28;20079;-75
2023/05/17 10:59:22;;;;;;;10.35;3.78;;;;;;;14.86;88.97;100796.59;5051976;28;20421;-75
2023/05/17 11:02:08;;;;;;;12.23;3.50;;;;;;;14.83;89.07;100792.66;5035310;28;20027;-75
2023/05/17 11:04:39;;;;;;;11.48;3.78;;;;;;;14.82;89.47;100787.41;5052785;28;20051;-75
2023/05/17 11:07:27;;;;;;;9.13;3.63;;;;;;;14.78;89.11;100789.72;5053373;28;20304;-75
2023/05/17 11:10:02;;;;;;;9.95;2.38;;;;;;;14.60;88.41;100798.72;5053573;28;20075;-75
2023/05/17 11:12:43;;;;;;;11.52;3.10;;;;;;;14.42;89.12;100799.84;5053376;28;20037;-75
2023/05/17 11:15:11;;;;;;;12.18;3.15;;;;;;;14.33;92.22;100792.16;5053023;28;20458;-74
2023/05/17 11:17:42;;;;;;;11.55;3.75;;;;;;;14.34;91.58;100796.63;5052852;28;20115;-75
2023/05/17 11:20:09;;;;;;;7.55;2.85;;;;;;;14.37;90.97;100791.94;5052718;28;20385;-75